Carlos E Rui — CULA8 — position and weather

sailwx.info

Track history (hours):
 
Tides and Currents Weather Stations Pressure Air Temp Water Temp Dewpoint Dewpoint Depression Visibility Wind Speed Wind Dir Waves Ship Positions

Carlos E Rui

Last reported at 2017-Nov-18 05:10 UTC. Time now 2017-Nov-20 23:12 UTC.
Position N 38°26' W 009°07'.

Length 15 m.

Type: Fishing. MMSI: 263269000.

Date/timePositionNaut miles runAvg speedWind from/ knotsBaromVisibWave heightAir tempDewpointWater temp
2017-Nov-18 05:10N 38°26' W 009°07'0 3.2
2017-Nov-18 05:01N 38°26' W 009°07'4 8.1
2017-Nov-18 04:30N 38°24' W 009°12'4 7.8
2017-Nov-18 04:01N 38°23' W 009°17'4 7.3
2017-Nov-18 03:31N 38°22' W 009°21'3 5.6
2017-Nov-18 03:01N 38°19' W 009°22'3 5.3
2017-Nov-18 02:28N 38°21' W 009°26'2 4.3
2017-Nov-18 02:00N 38°22' W 009°24'0 0.4
2017-Nov-18 01:30N 38°22' W 009°24'0 0.4
2017-Nov-18 01:00N 38°22' W 009°24'0 0.6
2017-Nov-18 00:28N 38°22' W 009°25'0 0.7
2017-Nov-17 23:59N 38°22' W 009°25'0 0.6
2017-Nov-17 23:30N 38°22' W 009°25'0 0.6
2017-Nov-17 22:57N 38°21' W 009°26'0 0.6
2017-Nov-17 22:21N 38°21' W 009°26'0 1.1
2017-Nov-17 22:00N 38°21' W 009°25'0 0.9
2017-Nov-17 21:30N 38°21' W 009°25'1 1.1
2017-Nov-17 20:59N 38°20' W 009°24'0 0.6
2017-Nov-17 20:31N 38°20' W 009°24'0 0.7
2017-Nov-17 20:01N 38°20' W 009°23'1 1.0
2017-Nov-17 19:31N 38°20' W 009°23'1 1.1
2017-Nov-17 19:00N 38°20' W 009°22'1 1.2
2017-Nov-17 18:31N 38°21' W 009°22'1 1.0
2017-Nov-17 18:01N 38°21' W 009°21'0 0.9
2017-Nov-17 17:31N 38°22' W 009°21'0 0.4
2017-Nov-17 17:01N 38°22' W 009°21'0 0.4
2017-Nov-17 16:31N 38°22' W 009°21'3 6.6
2017-Nov-17 16:01N 38°23' W 009°17'4 8.7
2017-Nov-17 15:31N 38°24' W 009°12'4 8.6
2017-Nov-17 15:00N 38°26' W 009°07'0 0.0
2017-Nov-16 08:01N 38°26' W 009°07'0 0.0
2017-Nov-16 08:00N 38°26' W 009°07'0 0.7
2017-Nov-16 07:30N 38°26' W 009°07'5 8.4
2017-Nov-16 06:55N 38°24' W 009°13'4 8.3
2017-Nov-16 06:29N 38°23' W 009°17'3 7.0
2017-Nov-16 06:01N 38°22' W 009°21'3 5.3
2017-Nov-16 05:30N 38°19' W 009°22'3 5.5
2017-Nov-16 05:01N 38°21' W 009°26'2 4.3
2017-Nov-16 04:30N 38°22' W 009°24'1 1.3
2017-Nov-16 04:00N 38°22' W 009°23'1 2.2
2017-Nov-16 03:26N 38°22' W 009°21'0 0.2
2017-Nov-16 02:59N 38°22' W 009°21'0 0.3
2017-Nov-16 02:30N 38°22' W 009°21'1 1.1
2017-Nov-16 02:00N 38°23' W 009°22'1 1.7
2017-Nov-16 01:31N 38°22' W 009°21'1 1.2
2017-Nov-16 01:01N 38°21' W 009°22'1 1.1
2017-Nov-16 00:31N 38°21' W 009°22'0 0.9
2017-Nov-16 00:01N 38°21' W 009°23'1 1.2
2017-Nov-15 23:31N 38°21' W 009°24'1 1.2
2017-Nov-15 23:01N 38°21' W 009°24'0 0.9
2017-Nov-15 22:30N 38°21' W 009°25'0 0.7
2017-Nov-15 22:00N 38°21' W 009°25'0 0.5
2017-Nov-15 21:31N 38°21' W 009°26'0 0.8
2017-Nov-15 20:59N 38°21' W 009°26'0 0.6
2017-Nov-15 20:31N 38°22' W 009°26'0 0.8
2017-Nov-15 20:00N 38°22' W 009°26'0 0.8
2017-Nov-15 19:30N 38°22' W 009°25'0 0.8
2017-Nov-15 19:00N 38°23' W 009°25'0 0.5
2017-Nov-15 18:31N 38°23' W 009°25'0 0.7
2017-Nov-15 18:00N 38°23' W 009°24'0 0.6
2017-Nov-15 17:31N 38°23' W 009°24'1 1.5
2017-Nov-15 17:00N 38°23' W 009°23'2 4.1
2017-Nov-15 16:30N 38°22' W 009°21'4 8.1
2017-Nov-15 16:01N 38°23' W 009°16'5 8.6
2017-Nov-15 15:27N 38°25' W 009°10'3 3.0
2017-Nov-15 14:29N 38°26' W 009°07'0 0.0
2017-Nov-14 04:45N 38°26' W 009°06'2 7.9
2017-Nov-14 04:30N 38°25' W 009°08'4 8.1
2017-Nov-14 03:59N 38°23' W 009°13'4 8.5
2017-Nov-14 03:31N 38°23' W 009°18'3 5.5
2017-Nov-14 02:55N 38°20' W 009°21'2 4.5
2017-Nov-14 02:25N 38°20' W 009°24'2 4.8
2017-Nov-14 02:01N 38°21' W 009°26'2 4.3
2017-Nov-14 01:30N 38°23' W 009°24'1 1.5
2017-Nov-14 01:01N 38°22' W 009°24'0 0.6
2017-Nov-14 00:30N 38°22' W 009°24'0 0.6
2017-Nov-14 00:00N 38°22' W 009°25'0 0.8
2017-Nov-13 23:30N 38°22' W 009°25'0 0.7
2017-Nov-13 22:55N 38°21' W 009°25'0 0.8
2017-Nov-13 22:30N 38°21' W 009°25'1 1.1
2017-Nov-13 21:57N 38°21' W 009°25'15 0.4
2017-Nov-12 04:31N 38°26' W 009°06'0 8.3
2017-Nov-12 04:30N 38°26' W 009°06'5 8.0
2017-Nov-12 03:52N 38°24' W 009°12'3 8.0
2017-Nov-12 03:29N 38°23' W 009°16'4 8.0
2017-Nov-12 03:00N 38°22' W 009°21'3 5.4
2017-Nov-12 02:22N 38°19' W 009°23'2 5.5
2017-Nov-12 02:00N 38°20' W 009°25'2 3.4
2017-Nov-12 01:28N 38°22' W 009°24'1 1.7
2017-Nov-12 01:00N 38°22' W 009°23'0 0.7
2017-Nov-12 00:30N 38°22' W 009°24'0 0.7
2017-Nov-12 00:00N 38°22' W 009°24'0 0.9
2017-Nov-11 23:30N 38°22' W 009°25'0 0.6
2017-Nov-11 23:00N 38°21' W 009°25'1 1.0
2017-Nov-11 22:30N 38°21' W 009°24'1 1.2
2017-Nov-11 22:00N 38°20' W 009°24'1 1.0
2017-Nov-11 21:30N 38°20' W 009°24'0 0.9
2017-Nov-11 21:00N 38°20' W 009°23'0 0.9
2017-Nov-11 20:30N 38°20' W 009°22'0 0.8
2017-Nov-11 20:00N 38°20' W 009°22'0 0.8
2017-Nov-11 19:30N 38°20' W 009°22'0 0.8
2017-Nov-11 19:00N 38°21' W 009°21'0 0.9
2017-Nov-11 18:30N 38°21' W 009°21'0 0.9
2017-Nov-11 18:00N 38°21' W 009°21'0 0.7
2017-Nov-11 17:30N 38°22' W 009°21'0 0.4
2017-Nov-11 17:00N 38°22' W 009°21'0 0.3
2017-Nov-11 16:30N 38°22' W 009°21'3 5.7
2017-Nov-11 16:00N 38°23' W 009°17'4 7.8
2017-Nov-11 15:30N 38°24' W 009°12'4 7.9
2017-Nov-11 15:00N 38°26' W 009°08'1 1.9
2017-Nov-11 14:30N 38°26' W 009°07'0 0.0
2017-Nov-10 05:52N 38°26' W 009°07'0 0.8
2017-Nov-10 05:27N 38°26' W 009°06'6 8.3
2017-Nov-10 04:47N 38°24' W 009°13'2 8.3
2017-Nov-10 04:30N 38°23' W 009°16'4 8.1
2017-Nov-10 04:00N 38°22' W 009°21'3 5.7
2017-Nov-10 03:30N 38°20' W 009°21'2 4.9
2017-Nov-10 03:00N 38°20' W 009°24'2 3.3
2017-Nov-10 02:28N 38°22' W 009°25'1 1.6
2017-Nov-10 01:59N 38°22' W 009°24'0 0.7
2017-Nov-10 01:30N 38°22' W 009°24'0 0.4
2017-Nov-10 01:00N 38°22' W 009°25'0 0.9
2017-Nov-10 00:30N 38°22' W 009°25'0 0.6
2017-Nov-10 00:00N 38°22' W 009°25'0 0.4
2017-Nov-09 23:29N 38°22' W 009°26'0 0.9
2017-Nov-09 22:57N 38°21' W 009°26'1 1.2
2017-Nov-09 22:29N 38°21' W 009°25'1 1.2
2017-Nov-09 21:59N 38°20' W 009°25'1 1.1
2017-Nov-09 21:29N 38°20' W 009°24'1 1.1
2017-Nov-09 21:01N 38°20' W 009°24'1 1.0
2017-Nov-09 20:28N 38°19' W 009°23'0 0.9
2017-Nov-09 20:00N 38°20' W 009°22'1 0.8
2017-Nov-09 18:57N 38°20' W 009°22'1 1.1
2017-Nov-09 18:25N 38°21' W 009°21'0 1.0
2017-Nov-09 17:59N 38°21' W 009°21'0 0.9
2017-Nov-09 17:28N 38°21' W 009°21'0 0.5
2017-Nov-09 16:58N 38°22' W 009°21'0 0.3
2017-Nov-09 16:27N 38°22' W 009°21'2 4.6
2017-Nov-09 15:59N 38°23' W 009°18'4 8.2
2017-Nov-09 15:30N 38°24' W 009°13'5 8.3
2017-Nov-09 14:53N 38°26' W 009°07'  
Track history (hours):
 
Tides and Currents Weather Stations Pressure Air Temp Water Temp Dewpoint Dewpoint Depression Visibility Wind Speed Wind Dir Waves Ship Positions

Carlos E Rui

Last reported at 2017-Nov-18 05:10 UTC. Time now 2017-Nov-20 23:12 UTC.
Position N 38°26' W 009°07'.

Length 15 m.

Type: Fishing. MMSI: 263269000.

Date/timePositionNaut miles runAvg speedWind from/ knotsBaromVisibWave heightAir tempDewpointWater temp
2017-Nov-18 05:10N 38°26' W 009°07'0 3.2
2017-Nov-18 05:01N 38°26' W 009°07'4 8.1
2017-Nov-18 04:30N 38°24' W 009°12'4 7.8
2017-Nov-18 04:01N 38°23' W 009°17'4 7.3
2017-Nov-18 03:31N 38°22' W 009°21'3 5.6
2017-Nov-18 03:01N 38°19' W 009°22'3 5.3
2017-Nov-18 02:28N 38°21' W 009°26'2 4.3
2017-Nov-18 02:00N 38°22' W 009°24'0 0.4
2017-Nov-18 01:30N 38°22' W 009°24'0 0.4
2017-Nov-18 01:00N 38°22' W 009°24'0 0.6
2017-Nov-18 00:28N 38°22' W 009°25'0 0.7
2017-Nov-17 23:59N 38°22' W 009°25'0 0.6
2017-Nov-17 23:30N 38°22' W 009°25'0 0.6
2017-Nov-17 22:57N 38°21' W 009°26'0 0.6
2017-Nov-17 22:21N 38°21' W 009°26'0 1.1
2017-Nov-17 22:00N 38°21' W 009°25'0 0.9
2017-Nov-17 21:30N 38°21' W 009°25'1 1.1
2017-Nov-17 20:59N 38°20' W 009°24'0 0.6
2017-Nov-17 20:31N 38°20' W 009°24'0 0.7
2017-Nov-17 20:01N 38°20' W 009°23'1 1.0
2017-Nov-17 19:31N 38°20' W 009°23'1 1.1
2017-Nov-17 19:00N 38°20' W 009°22'1 1.2
2017-Nov-17 18:31N 38°21' W 009°22'1 1.0
2017-Nov-17 18:01N 38°21' W 009°21'0 0.9
2017-Nov-17 17:31N 38°22' W 009°21'0 0.4
2017-Nov-17 17:01N 38°22' W 009°21'0 0.4
2017-Nov-17 16:31N 38°22' W 009°21'3 6.6
2017-Nov-17 16:01N 38°23' W 009°17'4 8.7
2017-Nov-17 15:31N 38°24' W 009°12'4 8.6
2017-Nov-17 15:00N 38°26' W 009°07'0 0.0
2017-Nov-16 08:01N 38°26' W 009°07'0 0.0
2017-Nov-16 08:00N 38°26' W 009°07'0 0.7
2017-Nov-16 07:30N 38°26' W 009°07'5 8.4
2017-Nov-16 06:55N 38°24' W 009°13'4 8.3
2017-Nov-16 06:29N 38°23' W 009°17'3 7.0
2017-Nov-16 06:01N 38°22' W 009°21'3 5.3
2017-Nov-16 05:30N 38°19' W 009°22'3 5.5
2017-Nov-16 05:01N 38°21' W 009°26'2 4.3
2017-Nov-16 04:30N 38°22' W 009°24'1 1.3
2017-Nov-16 04:00N 38°22' W 009°23'1 2.2
2017-Nov-16 03:26N 38°22' W 009°21'0 0.2
2017-Nov-16 02:59N 38°22' W 009°21'0 0.3
2017-Nov-16 02:30N 38°22' W 009°21'1 1.1
2017-Nov-16 02:00N 38°23' W 009°22'1 1.7
2017-Nov-16 01:31N 38°22' W 009°21'1 1.2
2017-Nov-16 01:01N 38°21' W 009°22'1 1.1
2017-Nov-16 00:31N 38°21' W 009°22'0 0.9
2017-Nov-16 00:01N 38°21' W 009°23'1 1.2
2017-Nov-15 23:31N 38°21' W 009°24'1 1.2
2017-Nov-15 23:01N 38°21' W 009°24'0 0.9
2017-Nov-15 22:30N 38°21' W 009°25'0 0.7
2017-Nov-15 22:00N 38°21' W 009°25'0 0.5
2017-Nov-15 21:31N 38°21' W 009°26'0 0.8
2017-Nov-15 20:59N 38°21' W 009°26'0 0.6
2017-Nov-15 20:31N 38°22' W 009°26'0 0.8
2017-Nov-15 20:00N 38°22' W 009°26'0 0.8
2017-Nov-15 19:30N 38°22' W 009°25'0 0.8
2017-Nov-15 19:00N 38°23' W 009°25'0 0.5
2017-Nov-15 18:31N 38°23' W 009°25'0 0.7
2017-Nov-15 18:00N 38°23' W 009°24'0 0.6
2017-Nov-15 17:31N 38°23' W 009°24'1 1.5
2017-Nov-15 17:00N 38°23' W 009°23'2 4.1
2017-Nov-15 16:30N 38°22' W 009°21'4 8.1
2017-Nov-15 16:01N 38°23' W 009°16'5 8.6
2017-Nov-15 15:27N 38°25' W 009°10'3 3.0
2017-Nov-15 14:29N 38°26' W 009°07'0 0.0
2017-Nov-14 04:45N 38°26' W 009°06'2 7.9
2017-Nov-14 04:30N 38°25' W 009°08'4 8.1
2017-Nov-14 03:59N 38°23' W 009°13'4 8.5
2017-Nov-14 03:31N 38°23' W 009°18'3 5.5
2017-Nov-14 02:55N 38°20' W 009°21'2 4.5
2017-Nov-14 02:25N 38°20' W 009°24'2 4.8
2017-Nov-14 02:01N 38°21' W 009°26'2 4.3
2017-Nov-14 01:30N 38°23' W 009°24'1 1.5
2017-Nov-14 01:01N 38°22' W 009°24'0 0.6
2017-Nov-14 00:30N 38°22' W 009°24'0 0.6
2017-Nov-14 00:00N 38°22' W 009°25'0 0.8
2017-Nov-13 23:30N 38°22' W 009°25'0 0.7
2017-Nov-13 22:55N 38°21' W 009°25'0 0.8
2017-Nov-13 22:30N 38°21' W 009°25'1 1.1
2017-Nov-13 21:57N 38°21' W 009°25'15 0.4
2017-Nov-12 04:31N 38°26' W 009°06'0 8.3
2017-Nov-12 04:30N 38°26' W 009°06'5 8.0
2017-Nov-12 03:52N 38°24' W 009°12'3 8.0
2017-Nov-12 03:29N 38°23' W 009°16'4 8.0
2017-Nov-12 03:00N 38°22' W 009°21'3 5.4
2017-Nov-12 02:22N 38°19' W 009°23'2 5.5
2017-Nov-12 02:00N 38°20' W 009°25'2 3.4
2017-Nov-12 01:28N 38°22' W 009°24'1 1.7
2017-Nov-12 01:00N 38°22' W 009°23'0 0.7
2017-Nov-12 00:30N 38°22' W 009°24'0 0.7
2017-Nov-12 00:00N 38°22' W 009°24'0 0.9
2017-Nov-11 23:30N 38°22' W 009°25'0 0.6
2017-Nov-11 23:00N 38°21' W 009°25'1 1.0
2017-Nov-11 22:30N 38°21' W 009°24'1 1.2
2017-Nov-11 22:00N 38°20' W 009°24'1 1.0
2017-Nov-11 21:30N 38°20' W 009°24'0 0.9
2017-Nov-11 21:00N 38°20' W 009°23'0 0.9
2017-Nov-11 20:30N 38°20' W 009°22'0 0.8
2017-Nov-11 20:00N 38°20' W 009°22'0 0.8
2017-Nov-11 19:30N 38°20' W 009°22'0 0.8
2017-Nov-11 19:00N 38°21' W 009°21'0 0.9
2017-Nov-11 18:30N 38°21' W 009°21'0 0.9
2017-Nov-11 18:00N 38°21' W 009°21'0 0.7
2017-Nov-11 17:30N 38°22' W 009°21'0 0.4
2017-Nov-11 17:00N 38°22' W 009°21'0 0.3
2017-Nov-11 16:30N 38°22' W 009°21'3 5.7
2017-Nov-11 16:00N 38°23' W 009°17'4 7.8
2017-Nov-11 15:30N 38°24' W 009°12'4 7.9
2017-Nov-11 15:00N 38°26' W 009°08'1 1.9
2017-Nov-11 14:30N 38°26' W 009°07'0 0.0
2017-Nov-10 05:52N 38°26' W 009°07'0 0.8
2017-Nov-10 05:27N 38°26' W 009°06'6 8.3
2017-Nov-10 04:47N 38°24' W 009°13'2 8.3
2017-Nov-10 04:30N 38°23' W 009°16'4 8.1
2017-Nov-10 04:00N 38°22' W 009°21'3 5.7
2017-Nov-10 03:30N 38°20' W 009°21'2 4.9
2017-Nov-10 03:00N 38°20' W 009°24'2 3.3
2017-Nov-10 02:28N 38°22' W 009°25'1 1.6
2017-Nov-10 01:59N 38°22' W 009°24'0 0.7
2017-Nov-10 01:30N 38°22' W 009°24'0 0.4
2017-Nov-10 01:00N 38°22' W 009°25'0 0.9
2017-Nov-10 00:30N 38°22' W 009°25'0 0.6
2017-Nov-10 00:00N 38°22' W 009°25'0 0.4
2017-Nov-09 23:29N 38°22' W 009°26'0 0.9
2017-Nov-09 22:57N 38°21' W 009°26'1 1.2
2017-Nov-09 22:29N 38°21' W 009°25'1 1.2
2017-Nov-09 21:59N 38°20' W 009°25'1 1.1
2017-Nov-09 21:29N 38°20' W 009°24'1 1.1
2017-Nov-09 21:01N 38°20' W 009°24'1 1.0
2017-Nov-09 20:28N 38°19' W 009°23'0 0.9
2017-Nov-09 20:00N 38°20' W 009°22'1 0.8
2017-Nov-09 18:57N 38°20' W 009°22'1 1.1
2017-Nov-09 18:25N 38°21' W 009°21'0 1.0
2017-Nov-09 17:59N 38°21' W 009°21'0 0.9
2017-Nov-09 17:28N 38°21' W 009°21'0 0.5
2017-Nov-09 16:58N 38°22' W 009°21'0 0.3
2017-Nov-09 16:27N 38°22' W 009°21'2 4.6
2017-Nov-09 15:59N 38°23' W 009°18'4 8.2
2017-Nov-09 15:30N 38°24' W 009°13'5 8.3
2017-Nov-09 14:53N 38°26' W 009°07'  

Dump ship's entire track history